createdAt,value
2022-08-16T00:02:17.449Z,0
2022-08-16T00:08:37.628Z,0
2022-08-16T00:15:00.403Z,0
2022-08-16T00:21:20.353Z,0
2022-08-16T00:27:43.329Z,0
2022-08-16T00:34:04.565Z,0
2022-08-16T00:40:33.872Z,0
2022-08-16T00:46:52.769Z,0
2022-08-16T00:53:09.334Z,0
2022-08-16T00:59:29.372Z,0
2022-08-16T01:05:52.328Z,0
2022-08-16T01:12:21.738Z,0
2022-08-16T01:18:38.939Z,0
2022-08-16T01:24:55.715Z,0
2022-08-16T01:31:18.392Z,0
2022-08-16T01:37:38.339Z,0
2022-08-16T01:44:01.686Z,0
2022-08-16T01:50:41.345Z,0
2022-08-16T01:56:44.446Z,0
2022-08-16T02:03:04.316Z,0
2022-08-16T02:09:27.325Z,0
2022-08-16T02:15:47.356Z,0
2022-08-16T02:22:34.019Z,0
2022-08-16T02:28:30.374Z,0
2022-08-16T02:34:56.387Z,0
2022-08-16T02:41:13.368Z,0
2022-08-16T02:47:57.920Z,0
2022-08-16T02:53:56.514Z,0
2022-08-16T03:00:32.201Z,0
2022-08-16T03:06:42.549Z,0
2022-08-16T03:13:02.717Z,0
2022-08-16T03:19:22.347Z,0
2022-08-16T03:25:45.418Z,0
2022-08-16T03:32:05.330Z,0
2022-08-16T03:48:36.545Z,0
2022-08-16T03:54:57.873Z,2
2022-08-16T04:01:17.359Z,5
2022-08-16T04:07:37.404Z,14
2022-08-16T04:14:08.230Z,31
2022-08-16T04:20:23.242Z,59
2022-08-16T04:26:46.379Z,99
2022-08-16T04:33:04.475Z,147
2022-08-16T04:39:36.775Z,201
2022-08-16T04:45:46.389Z,262
2022-08-16T04:52:32.907Z,324
2022-08-16T04:58:38.197Z,384
2022-08-16T05:04:52.403Z,444
2022-08-16T05:11:12.392Z,502
2022-08-16T05:17:35.423Z,555
2022-08-16T05:23:58.832Z,606
2022-08-16T05:30:34.186Z,651
2022-08-16T05:36:38.434Z,694
2022-08-16T05:43:03.503Z,739
2022-08-16T05:49:22.333Z,768
2022-08-16T05:55:44.366Z,803
2022-08-16T06:02:06.103Z,838
2022-08-16T06:08:32.215Z,873
2022-08-16T06:14:47.367Z,905
2022-08-16T06:21:10.333Z,935
2022-08-16T06:27:39.697Z,965
2022-08-16T06:33:53.341Z,990
2022-08-16T06:40:15.603Z,1019
2022-08-16T06:46:36.740Z,1048
2022-08-16T06:52:58.746Z,1075
2022-08-16T06:59:19.343Z,1125
2022-08-16T07:05:41.303Z,1157
2022-08-16T07:12:03.324Z,1190
2022-08-16T07:18:24.322Z,1222
2022-08-16T07:24:45.744Z,1263
2022-08-16T07:31:05.320Z,1292
2022-08-16T07:37:28.355Z,1312
2022-08-16T07:43:48.326Z,1367
2022-08-16T07:50:55.415Z,1414
2022-08-16T07:56:33.913Z,1474
2022-08-16T08:02:54.348Z,1534
2022-08-16T08:09:14.348Z,1604
2022-08-16T08:15:37.327Z,1672
2022-08-16T08:21:58.699Z,1770
2022-08-16T08:28:20.322Z,1785
2022-08-16T08:34:40.357Z,1912
2022-08-16T08:41:03.361Z,1982
2022-08-16T08:47:23.335Z,2022
2022-08-16T08:53:46.332Z,2112
2022-08-16T09:00:07.854Z,2163
2022-08-16T09:23:30.339Z,2570
2022-08-16T09:29:59.676Z,2670
2022-08-16T09:36:31.668Z,2760
2022-08-16T09:42:38.762Z,2859
2022-08-16T09:48:56.477Z,2993
2022-08-16T09:55:19.375Z,2980
2022-08-16T10:01:43.423Z,3134
2022-08-16T10:08:25.258Z,3295
2022-08-16T10:14:24.757Z,3482
2022-08-16T10:20:45.312Z,3322
2022-08-16T10:27:20.969Z,3182
2022-08-16T10:33:29.529Z,3738
2022-08-16T10:39:48.346Z,3870
2022-08-16T10:46:34.137Z,4033
2022-08-16T10:58:54.360Z,3887
2022-08-16T11:05:14.416Z,3715
2022-08-16T11:12:07.685Z,1733
2022-08-16T11:24:39.392Z,3997
2022-08-16T11:30:40.343Z,3786
2022-08-16T11:37:03.311Z,4265
2022-08-16T11:43:23.355Z,3318
2022-08-16T11:49:46.322Z,5485
2022-08-16T11:56:06.352Z,5416
2022-08-16T12:02:30.797Z,5316
2022-08-16T12:08:49.333Z,5341
2022-08-16T12:15:12.369Z,5599
2022-08-16T12:21:35.752Z,5783
2022-08-16T12:27:55.318Z,6210
2022-08-16T12:34:19.706Z,6695
2022-08-16T12:40:38.333Z,6591
2022-08-16T12:46:58.364Z,6535
2022-08-16T12:53:21.315Z,6825
2022-08-16T12:59:41.327Z,7706
2022-08-16T13:06:04.356Z,6406
2022-08-16T13:12:25.019Z,7560
2022-08-16T13:18:51.743Z,7253
2022-08-16T13:25:07.326Z,7179
2022-08-16T13:31:30.314Z,2354
2022-08-16T13:37:50.519Z,7490
2022-08-16T13:44:13.330Z,8339
2022-08-16T13:50:49.416Z,7864
2022-08-16T13:56:56.318Z,6948
2022-08-16T14:03:18.334Z,3218
2022-08-16T14:09:39.335Z,4974
2022-08-16T14:15:59.320Z,3831
2022-08-16T14:22:31.025Z,3384
2022-08-16T14:28:42.333Z,3389
2022-08-16T14:35:05.358Z,4145
2022-08-16T14:41:25.340Z,6079
2022-08-16T14:47:49.687Z,6942
2022-08-16T14:54:11.278Z,5328
2022-08-16T15:00:33.316Z,4123
2022-08-16T15:23:40.344Z,3336
2022-08-16T15:29:58.344Z,3442
2022-08-16T15:36:21.416Z,3141
2022-08-16T15:42:41.323Z,2898
2022-08-16T15:49:04.327Z,2782
2022-08-16T15:55:35.484Z,3438
2022-08-16T16:01:47.339Z,3233
2022-08-16T16:08:10.814Z,4042
2022-08-16T16:14:30.332Z,3979
2022-08-16T16:20:50.321Z,3212
2022-08-16T16:27:13.357Z,2274
2022-08-16T16:33:33.323Z,2351
2022-08-16T16:39:56.393Z,2967
2022-08-16T16:46:32.735Z,2816
2022-08-16T16:52:44.501Z,2899
2022-08-16T16:59:00.880Z,2556
2022-08-16T17:05:22.325Z,2053
2022-08-16T17:11:42.356Z,2574
2022-08-16T17:19:14.325Z,2803
2022-08-16T17:24:31.145Z,2197
2022-08-16T17:30:48.321Z,2278
2022-08-16T17:37:08.354Z,1842
2022-08-16T17:43:31.333Z,1598
2022-08-16T17:49:51.375Z,1491
2022-08-16T17:56:14.369Z,1414
2022-08-16T18:02:43.258Z,1370
2022-08-16T18:09:01.963Z,1028
2022-08-16T18:15:17.549Z,520
2022-08-16T18:21:40.402Z,313
2022-08-16T18:28:00.326Z,170
2022-08-16T18:34:23.337Z,111
2022-08-16T18:40:43.334Z,94
2022-08-16T18:47:06.315Z,72
2022-08-16T18:53:26.356Z,50
2022-08-16T18:59:49.320Z,29
2022-08-16T19:06:10.481Z,14
2022-08-16T19:12:37.603Z,6
2022-08-16T19:18:52.318Z,2
2022-08-16T19:25:15.336Z,1
2022-08-16T19:31:35.328Z,0
2022-08-16T19:37:58.503Z,0
2022-08-16T19:44:18.349Z,0
2022-08-16T19:50:41.301Z,0
2022-08-16T19:57:01.371Z,0
2022-08-16T20:03:24.387Z,0
2022-08-16T20:09:44.365Z,0
2022-08-16T20:16:07.376Z,0
2022-08-16T20:22:50.103Z,0
2022-08-16T20:28:53.229Z,0
2022-08-16T20:35:10.348Z,0
2022-08-16T20:58:34.324Z,0
2022-08-16T21:04:57.304Z,0
2022-08-16T21:11:17.474Z,0
2022-08-16T21:17:40.305Z,0
2022-08-16T21:24:00.336Z,0
2022-08-16T21:30:27.614Z,0
2022-08-16T21:36:43.316Z,0
2022-08-16T21:43:06.360Z,0
2022-08-16T21:49:26.328Z,0
2022-08-16T21:55:49.312Z,0
2022-08-16T22:20:04.359Z,0
2022-08-16T22:26:29.785Z,0
2022-08-16T22:32:47.320Z,0
2022-08-16T22:39:07.382Z,0
2022-08-16T22:45:30.337Z,0
2022-08-16T22:51:50.357Z,0
2022-08-16T22:58:13.307Z,0
2022-08-16T23:04:33.406Z,0
2022-08-16T23:10:56.317Z,0
2022-08-16T23:17:16.386Z,0
2022-08-16T23:23:39.345Z,0
2022-08-16T23:29:59.299Z,0
2022-08-16T23:36:22.389Z,0
2022-08-16T23:42:52.630Z,0
2022-08-16T23:49:45.644Z,0
2022-08-16T23:55:25.308Z,0
